Latest Weather Observations for Mallacoota

IDV60801

Issued at 4:32 pm EST Friday 26 August 2016 (issued every 30 minutes, with the page automatically refreshed every 10 minutes)

About weather observations | Map of weather stations | Latest weather observations for VIC | Other Formats
Station Details ID: 084084 Name: MALLACOOTA Lat: -37.60 Lon: 149.73 Height: 22.0 m
Data from the previous 72 hours. | See also: Recent months at Mallacoota
Date/Time
EST
Temp
°C
App
Temp
°C
Dew
Point
°C
Rel
Hum
%
Delta-T
°C
Wind Press
QNH
hPa
Press
MSL
hPa
Rain since
9am
mm
Dir  Spd
km/h
Gust
km/h
Spd
kts
Gust
kts
26/04:30pm 11.5 7.6 3.5 58 3.5 W 13 24 7 13 1019.2 - 0.0
26/04:00pm 12.2 8.2 4.7 60 3.4 WSW 15 28 8 15 1018.9 - 0.0
26/03:30pm 12.2 8.0 3.9 57 3.7 W 15 28 8 15 1018.7 - 0.0
26/03:00pm 13.5 8.9 3.8 52 4.4 W 17 28 9 15 1018.6 1018.6 0.0
26/02:30pm 13.6 9.4 3.7 51 4.5 W 15 26 8 14 1018.5 - 0.0
26/02:00pm 14.3 10.0 3.2 47 5.0 WSW 15 32 8 17 1018.6 - 0.0
26/01:30pm 13.8 8.6 2.7 47 4.9 WSW 19 32 10 17 1018.7 - 0.0
26/01:00pm 13.6 8.4 2.5 47 4.9 WSW 19 33 10 18 1018.7 - 0.0
26/12:30pm 13.7 8.8 4.3 53 4.3 WSW 19 33 10 18 1018.9 - 0.0
26/12:00pm 13.3 8.5 2.8 49 4.6 WSW 17 33 9 18 1019.2 1019.2 0.0
26/11:30am 13.2 8.2 3.6 52 4.3 WSW 19 33 10 18 1019.3 - 0.0
26/11:00am 12.8 7.6 3.7 54 4.1 W 20 32 11 17 1019.3 - 0.0
26/10:30am 12.6 7.7 4.3 57 3.8 WSW 19 32 10 17 1019.2 - 0.0
26/10:00am 11.7 7.0 5.1 64 3.0 W 19 28 10 15 1019.3 - 0.0
26/09:30am 10.6 6.4 5.6 71 2.3 WSW 17 28 9 15 1019.5 - 0.0
26/09:00am 10.2 6.5 6.2 76 1.9 W 15 28 8 15 1019.2 1019.2 2.6
26/08:30am 9.5 5.8 6.2 80 1.5 W 15 30 8 16 1019.1 - 2.6
26/08:00am 8.8 5.4 6.1 83 1.2 W 13 22 7 12 1019.0 - 2.6
26/07:30am 8.6 5.1 5.5 81 1.4 W 13 24 7 13 1018.7 - 2.6
26/07:00am 8.0 4.1 5.3 83 1.2 W 15 22 8 12 1018.2 - 2.6
26/06:30am 7.5 3.6 5.3 86 1.0 W 15 28 8 15 1017.7 - 2.6
26/06:00am 7.2 3.2 5.0 86 1.0 W 15 24 8 13 1017.3 1017.3 2.6
26/05:30am 7.3 3.0 5.1 86 1.0 W 17 26 9 14 1017.2 - 2.6
26/05:00am 7.1 2.8 5.1 87 0.9 W 17 28 9 15 1016.9 - 2.6
26/04:30am 7.2 3.3 5.2 87 0.9 W 15 26 8 14 1016.6 - 2.6
26/04:00am 7.3 3.8 5.4 88 0.8 W 13 26 7 14 1016.4 - 2.6
26/03:30am 7.3 3.8 5.6 89 0.8 W 13 20 7 11 1016.1 - 2.6
26/03:00am 7.4 3.6 5.9 90 0.7 W 15 22 8 12 1016.0 1016.0 2.6
26/02:30am 7.1 3.6 5.4 89 0.8 W 13 22 7 12 1015.9 - 2.6
26/02:00am 7.1 3.1 5.1 87 0.9 W 15 24 8 13 1016.0 - 2.6
26/01:30am 6.6 2.6 4.9 89 0.7 W 15 24 8 13 1016.1 - 2.6
26/01:00am 6.6 3.0 4.8 88 0.8 W 13 19 7 10 1016.3 - 2.6
26/12:30am 7.3 4.5 5.3 87 0.9 WNW 9 13 5 7 1016.3 - 2.4
26/12:00am 7.5 4.8 5.6 88 0.8 W 9 15 5 8 1016.1 1016.1 2.2
 
Date/Time
EST
Temp
°C
App
Temp
°C
Dew
Point
°C
Rel
Hum
%
Delta-T
°C
Wind Press
QNH
hPa
Press
MSL
hPa
Rain since
9am
mm
Dir  Spd
km/h
Gust
km/h
Spd
kts
Gust
kts
25/11:30pm 7.2 4.4 5.3 88 0.8 W 9 13 5 7 1015.9 - 2.2
25/11:00pm 7.5 4.6 4.5 81 1.3 W 9 22 5 12 1015.9 - 1.6
25/10:30pm 7.5 4.2 4.3 80 1.4 W 11 20 6 11 1015.6 - 1.6
25/10:00pm 7.5 3.4 4.5 81 1.3 W 15 26 8 14 1015.5 - 1.6
25/09:30pm 7.2 3.1 4.5 83 1.2 W 15 22 8 12 1015.2 - 1.6
25/09:00pm 7.3 3.3 4.8 84 1.1 W 15 24 8 13 1015.2 1015.2 1.6
25/08:30pm 7.5 3.5 5.0 84 1.1 W 15 24 8 13 1014.9 - 1.6
25/08:00pm 7.3 4.1 4.9 85 1.1 WNW 11 17 6 9 1014.7 - 1.6
25/07:30pm 7.5 3.8 4.5 81 1.3 W 13 22 7 12 1014.5 - 1.6
25/07:00pm 7.8 4.0 5.8 87 0.9 W 15 24 8 13 1014.4 - 1.6
25/06:30pm 7.8 4.0 5.9 88 0.9 WSW 15 24 8 13 1014.0 - 1.4
25/06:00pm 7.9 5.1 5.2 83 1.2 WSW 9 17 5 9 1013.6 1013.6 0.8
25/05:30pm 8.4 5.2 5.3 81 1.4 W 11 17 6 9 1013.0 - 0.8
25/05:00pm 8.6 6.0 6.1 84 1.1 WSW 9 15 5 8 1012.7 - 0.8
25/04:30pm 9.1 5.8 6.2 82 1.3 WSW 13 24 7 13 1012.4 - 0.8
25/04:00pm 8.8 3.7 6.1 83 1.2 SSW 22 35 12 19 1012.5 - 0.2
25/03:30pm 11.2 7.0 5.7 69 2.5 SSW 17 30 9 16 1012.1 - 0.0
25/03:00pm 10.7 5.2 6.1 73 2.1 SSW 24 39 13 21 1012.0 1012.0 0.0
25/02:30pm 10.4 4.1 5.8 73 2.1 SSW 28 48 15 26 1011.8 - 0.0
25/02:24pm 10.1 3.8 5.5 73 2.1 SSW 28 48 15 26 1011.8 - 0.0
25/02:00pm 13.6 8.6 4.7 55 4.1 SW 20 33 11 18 1011.0 - 0.0
25/01:30pm 11.8 6.8 4.5 61 3.3 SW 20 35 11 19 1010.8 - 0.0
25/01:00pm 12.8 8.1 5.0 59 3.6 SW 19 32 10 17 1010.7 - 0.0
25/12:30pm 10.6 4.9 4.7 67 2.7 SW 24 39 13 21 1011.1 - 0.0
25/12:00pm 11.2 5.9 5.1 66 2.8 SW 22 39 12 21 1011.4 1011.4 0.0
25/11:30am 11.8 7.3 4.3 60 3.4 WSW 17 28 9 15 1011.4 - 0.0
25/11:00am 11.4 5.8 3.4 58 3.5 WSW 22 37 12 20 1011.3 - 0.0
25/10:30am 11.7 6.7 4.4 61 3.3 WSW 20 32 11 17 1011.2 - 0.0
25/10:00am 10.9 7.0 5.2 68 2.6 WSW 15 28 8 15 1011.1 - 0.0
25/09:30am 9.7 6.3 5.7 76 1.8 W 13 19 7 10 1011.3 - 0.0
25/09:00am 9.3 4.4 4.3 71 2.2 W 19 30 10 16 1011.2 1011.2 0.0
25/08:30am 9.5 5.1 4.7 72 2.1 W 17 26 9 14 1011.0 - 0.0
25/08:00am 8.1 4.0 4.3 77 1.7 W 15 26 8 14 1010.8 - 0.0
25/07:30am 7.3 3.2 4.3 81 1.3 W 15 26 8 14 1010.8 - 0.0
25/07:00am 7.3 2.8 4.4 82 1.3 WNW 17 28 9 15 1010.5 - 0.0
25/06:30am 7.6 4.0 4.9 83 1.2 WNW 13 24 7 13 1010.6 - 0.0
25/06:00am 7.7 3.8 5.5 86 1.0 W 15 24 8 13 1010.2 1010.2 0.0
25/05:30am 8.0 4.2 5.6 85 1.1 W 15 26 8 14 1009.9 - 0.0
25/05:00am 7.5 3.6 5.3 86 1.0 W 15 22 8 12 1009.7 - 0.0
25/04:30am 7.3 3.3 5.1 86 1.0 W 15 24 8 13 1009.6 - 0.0
25/04:00am 7.5 4.0 5.3 86 1.0 W 13 22 7 12 1009.5 - 0.0
25/03:30am 8.0 5.0 5.8 86 1.0 W 11 22 6 12 1009.7 - 0.0
25/03:00am 8.4 4.9 5.5 82 1.3 W 13 28 7 15 1009.7 1009.7 0.0
25/02:30am 8.4 4.5 5.5 82 1.3 W 15 24 8 13 1009.7 - 0.0
25/02:00am 8.5 5.0 5.4 81 1.4 W 13 22 7 12 1009.7 - 0.0
25/01:30am 8.5 5.0 5.4 81 1.4 W 13 28 7 15 1010.1 - 0.0
25/01:00am 8.2 5.0 5.3 82 1.3 WNW 11 19 6 10 1010.3 - 0.0
25/12:30am 8.5 5.7 5.1 79 1.5 W 9 15 5 8 1010.3 - 0.0
25/12:00am 8.7 5.1 5.1 78 1.6 W 13 19 7 10 1010.2 1010.2 0.0
 
Date/Time
EST
Temp
°C
App
Temp
°C
Dew
Point
°C
Rel
Hum
%
Delta-T
°C
Wind Press
QNH
hPa
Press
MSL
hPa
Rain since
9am
mm
Dir  Spd
km/h
Gust
km/h
Spd
kts
Gust
kts
24/11:30pm 8.9 5.1 5.6 80 1.5 W 15 20 8 11 1010.8 - 0.0
24/11:00pm 8.6 5.6 6.1 84 1.1 W 11 20 6 11 1011.0 - 0.0
24/10:30pm 8.8 5.8 6.2 84 1.2 W 11 17 6 9 1011.2 - 0.0
24/10:00pm 8.8 6.1 5.7 81 1.4 W 9 19 5 10 1011.6 - 0.0
24/09:30pm 9.0 6.3 5.7 80 1.5 W 9 15 5 8 1011.7 - 0.0
24/09:00pm 9.0 6.1 6.3 83 1.2 W 11 17 6 9 1011.9 1011.9 0.0
24/08:30pm 8.9 6.3 6.0 82 1.3 W 9 17 5 9 1011.8 - 0.0
24/08:00pm 8.7 6.0 5.8 82 1.3 WNW 9 11 5 6 1012.2 - 0.0
24/07:30pm 9.0 6.4 5.9 81 1.4 W 9 13 5 7 1012.0 - 0.0
24/07:00pm 9.1 6.5 6.0 81 1.4 W 9 17 5 9 1011.8 - 0.0
24/06:30pm 9.4 7.2 6.1 80 1.5 W 7 13 4 7 1011.8 - 0.0
24/06:00pm 9.7 7.5 6.2 79 1.6 W 7 13 4 7 1011.6 1011.6 0.0
24/05:30pm 10.2 7.6 6.2 76 1.9 W 9 19 5 10 1011.8 - 0.0
24/05:00pm 10.7 7.8 6.3 74 2.1 SW 11 20 6 11 1011.5 - 0.0
24/04:30pm 11.0 7.7 6.2 72 2.2 SSW 13 19 7 10 1011.5 - 0.0
24/04:00pm 11.4 8.1 6.3 71 2.4 SSW 13 17 7 9 1011.6 - 0.0
24/03:30pm 12.0 8.8 6.7 70 2.5 SSW 13 19 7 10 1011.7 - 0.0
24/03:00pm 12.3 9.1 6.8 69 2.6 SSW 13 19 7 10 1011.6 1011.6 0.0
24/02:30pm 12.4 8.7 6.5 67 2.8 SSW 15 20 8 11 1011.7 - 0.0
24/02:00pm 12.7 9.3 5.8 63 3.2 SSW 13 20 7 11 1011.9 - 0.0
24/01:30pm 12.8 8.7 6.2 64 3.1 SSW 17 24 9 13 1012.2 - 0.0
24/01:00pm 12.3 8.5 5.9 65 3.0 S 15 22 8 12 1012.6 - 0.0
24/12:30pm 12.7 8.6 6.3 65 3.0 S 17 22 9 12 1012.9 - 0.0
24/12:00pm 12.6 10.1 6.4 66 2.9 SSW 9 17 5 9 1013.5 1013.5 0.0
24/11:30am 12.8 9.4 5.9 63 3.3 S 13 20 7 11 1014.0 - 0.0
24/11:00am 13.4 11.1 5.6 59 3.7 SW 7 9 4 5 1014.7 - 0.0
24/10:30am 13.3 11.0 5.7 60 3.6 W 7 11 4 6 1015.0 - 0.0
24/10:00am 13.0 10.5 4.9 58 3.7 W 7 13 4 7 1015.1 - 0.0
24/09:30am 11.7 8.5 5.1 64 3.0 W 11 19 6 10 1015.2 - 0.0
24/09:00am 10.1 7.3 5.3 72 2.2 WNW 9 15 5 8 1015.4 1015.4 0.2
24/08:30am 7.5 4.1 3.9 78 1.5 WNW 11 15 6 8 1015.8 - 0.2
24/08:00am 5.7 2.2 3.4 85 1.0 NNW 11 15 6 8 1016.1 - 0.2
24/07:30am 4.7 1.5 3.0 89 0.7 WNW 9 11 5 6 1016.2 - 0.2
24/07:00am 3.3 0.4 2.4 94 0.4 NNW 7 11 4 6 1015.7 - 0.2
24/06:30am 3.3 0.0 2.4 94 0.4 NNW 9 13 5 7 1015.5 - 0.2
24/06:00am 3.6 0.3 2.3 91 0.5 WNW 9 11 5 6 1015.1 1015.1 0.2
24/05:30am 3.2 0.4 2.0 92 0.5 N 6 9 3 5 1015.4 - 0.2
24/05:00am 4.4 1.6 2.9 90 0.6 WNW 7 11 4 6 1015.6 - 0.2
24/04:30am 4.6 1.4 3.3 91 0.5 N 9 11 5 6 1015.8 - 0.2
24/04:00am 4.9 1.7 3.2 89 0.7 NNW 9 11 5 6 1015.6 - 0.2
24/03:30am 6.1 3.1 4.1 87 0.9 NW 9 13 5 7 1015.6 - 0.2
24/03:00am 6.1 3.1 4.1 87 0.9 NW 9 13 5 7 1015.8 1015.8 0.2
24/02:30am 6.9 3.9 4.2 83 1.2 NW 9 13 5 7 1016.1 - 0.2
24/02:00am 7.1 4.2 4.4 83 1.2 NW 9 13 5 7 1016.5 - 0.2
24/01:30am 7.1 3.8 4.4 83 1.2 NW 11 15 6 8 1016.9 - 0.2
24/01:00am 7.5 4.2 4.5 81 1.3 WNW 11 17 6 9 1016.9 - 0.2
24/12:30am 7.5 4.2 4.5 81 1.3 WNW 11 19 6 10 1017.1 - 0.2
24/12:00am 7.4 4.1 4.4 81 1.3 WNW 11 17 6 9 1017.1 1017.1 0.2
 
Date/Time
EST
Temp
°C
App
Temp
°C
Dew
Point
°C
Rel
Hum
%
Delta-T
°C
Wind Press
QNH
hPa
Press
MSL
hPa
Rain since
9am
mm
Dir  Spd
km/h
Gust
km/h
Spd
kts
Gust
kts
23/11:30pm 7.4 4.0 4.2 80 1.4 WNW 11 19 6 10 1017.0 - 0.2
23/11:00pm 7.1 3.7 4.1 81 1.3 WNW 11 17 6 9 1016.8 - 0.2
23/10:30pm 6.9 3.5 4.2 83 1.2 WNW 11 15 6 8 1017.0 - 0.2
23/10:00pm 6.5 3.2 4.3 86 0.9 WNW 11 17 6 9 1017.1 - 0.2
23/09:30pm 6.7 3.8 4.4 85 1.0 WNW 9 13 5 7 1017.2 - 0.2
23/09:00pm 7.0 3.7 4.7 85 1.0 WNW 11 13 6 7 1017.2 1017.2 0.2
23/08:30pm 6.7 3.8 4.5 86 1.0 WNW 9 11 5 6 1017.0 - 0.2
23/08:00pm 7.5 4.6 4.8 83 1.2 W 9 13 5 7 1016.5 - 0.2
23/07:30pm 8.0 5.1 4.8 80 1.4 WSW 9 17 5 9 1016.5 - 0.2
23/07:00pm 8.5 5.6 4.9 78 1.6 SW 9 15 5 8 1016.5 - 0.2
23/06:30pm 8.5 5.6 4.9 78 1.6 WSW 9 15 5 8 1016.7 - 0.2
23/06:00pm 8.9 6.0 4.7 75 1.9 W 9 13 5 7 1016.8 1016.8 0.2
23/05:30pm 9.3 7.1 5.1 75 1.9 W 6 7 3 4 1016.7 - 0.2
23/05:00pm 10.8 7.3 5.6 70 2.4 SW 13 20 7 11 1016.2 - 0.2

Other Formats:

Comma delimited format used in spreadsheet applications
http://www.bom.gov.au/fwo/IDV60801/IDV60801.94935.axf

JavaScript Object Notation format (JSON) in row-major order
http://www.bom.gov.au/fwo/IDV60801/IDV60801.94935.json